sensor_id;sensor_type;location;lat;lon;timestamp;P1;durP1;ratioP1;P2;durP2;ratioP2
57319;SDS011;43158;51.026;18.190;2022-12-19T00:00:02;60.70;;;32.50;;
57319;SDS011;43158;51.026;18.190;2022-12-19T00:02:29;51.40;;;27.30;;
57319;SDS011;43158;51.026;18.190;2022-12-19T00:04:55;53.00;;;27.70;;
57319;SDS011;43158;51.026;18.190;2022-12-19T00:07:20;56.10;;;30.80;;
57319;SDS011;43158;51.026;18.190;2022-12-19T00:09:47;71.70;;;36.50;;
57319;SDS011;43158;51.026;18.190;2022-12-19T00:12:13;65.20;;;31.90;;
57319;SDS011;43158;51.026;18.190;2022-12-19T00:14:39;55.80;;;29.70;;
57319;SDS011;43158;51.026;18.190;2022-12-19T00:17:04;52.80;;;24.90;;
57319;SDS011;43158;51.026;18.190;2022-12-19T00:19:31;63.40;;;32.20;;
57319;SDS011;43158;51.026;18.190;2022-12-19T00:21:57;45.50;;;26.00;;
57319;SDS011;43158;51.026;18.190;2022-12-19T00:24:23;49.50;;;29.50;;
57319;SDS011;43158;51.026;18.190;2022-12-19T00:26:48;62.50;;;34.90;;
57319;SDS011;43158;51.026;18.190;2022-12-19T00:29:14;50.70;;;28.40;;
57319;SDS011;43158;51.026;18.190;2022-12-19T00:31:40;41.60;;;27.70;;
57319;SDS011;43158;51.026;18.190;2022-12-19T00:34:06;49.80;;;29.50;;
57319;SDS011;43158;51.026;18.190;2022-12-19T00:36:33;48.20;;;32.30;;
57319;SDS011;43158;51.026;18.190;2022-12-19T00:38:59;59.40;;;31.30;;
57319;SDS011;43158;51.026;18.190;2022-12-19T00:41:27;62.20;;;32.80;;
57319;SDS011;43158;51.026;18.190;2022-12-19T00:43:55;42.30;;;23.60;;
57319;SDS011;43158;51.026;18.190;2022-12-19T00:46:23;44.40;;;28.40;;
57319;SDS011;43158;51.026;18.190;2022-12-19T00:48:49;56.20;;;28.00;;
57319;SDS011;43158;51.026;18.190;2022-12-19T00:51:21;47.80;;;28.50;;
57319;SDS011;43158;51.026;18.190;2022-12-19T00:53:49;44.90;;;25.90;;
57319;SDS011;43158;51.026;18.190;2022-12-19T00:56:20;38.60;;;25.10;;
57319;SDS011;43158;51.026;18.190;2022-12-19T00:58:47;54.30;;;27.80;;
57319;SDS011;43158;51.026;18.190;2022-12-19T01:01:15;56.90;;;27.10;;
57319;SDS011;43158;51.026;18.190;2022-12-19T01:03:46;46.90;;;30.00;;
57319;SDS011;43158;51.026;18.190;2022-12-19T01:06:14;52.30;;;26.40;;
57319;SDS011;43158;51.026;18.190;2022-12-19T01:08:40;36.80;;;20.10;;
57319;SDS011;43158;51.026;18.190;2022-12-19T01:11:06;49.00;;;27.70;;
57319;SDS011;43158;51.026;18.190;2022-12-19T01:13:33;54.70;;;30.10;;
57319;SDS011;43158;51.026;18.190;2022-12-19T01:16:06;55.60;;;28.60;;
57319;SDS011;43158;51.026;18.190;2022-12-19T01:18:35;45.40;;;21.00;;
57319;SDS011;43158;51.026;18.190;2022-12-19T01:21:03;31.40;;;18.40;;
57319;SDS011;43158;51.026;18.190;2022-12-19T01:23:32;37.30;;;20.70;;
57319;SDS011;43158;51.026;18.190;2022-12-19T01:25:58;42.60;;;22.40;;
57319;SDS011;43158;51.026;18.190;2022-12-19T01:28:24;34.80;;;20.40;;
57319;SDS011;43158;51.026;18.190;2022-12-19T01:30:50;56.70;;;29.60;;
57319;SDS011;43158;51.026;18.190;2022-12-19T01:33:16;37.20;;;21.00;;
57319;SDS011;43158;51.026;18.190;2022-12-19T01:35:45;37.60;;;28.00;;
57319;SDS011;43158;51.026;18.190;2022-12-19T01:38:12;62.90;;;32.80;;
57319;SDS011;43158;51.026;18.190;2022-12-19T01:40:40;59.20;;;31.90;;
57319;SDS011;43158;51.026;18.190;2022-12-19T01:43:13;46.90;;;26.00;;
57319;SDS011;43158;51.026;18.190;2022-12-19T01:45:40;46.40;;;27.80;;
57319;SDS011;43158;51.026;18.190;2022-12-19T01:53:19;55.50;;;27.40;;
57319;SDS011;43158;51.026;18.190;2022-12-19T01:58:16;37.80;;;19.80;;
57319;SDS011;43158;51.026;18.190;2022-12-19T02:00:43;38.40;;;22.20;;
57319;SDS011;43158;51.026;18.190;2022-12-19T02:05:54;42.20;;;24.80;;
57319;SDS011;43158;51.026;18.190;2022-12-19T02:08:20;40.30;;;21.00;;
57319;SDS011;43158;51.026;18.190;2022-12-19T02:10:46;52.90;;;30.00;;
57319;SDS011;43158;51.026;18.190;2022-12-19T02:13:12;53.40;;;26.30;;
57319;SDS011;43158;51.026;18.190;2022-12-19T02:24:19;46.20;;;25.90;;
57319;SDS011;43158;51.026;18.190;2022-12-19T02:35:10;43.20;;;26.60;;
57319;SDS011;43158;51.026;18.190;2022-12-19T02:37:42;37.70;;;21.10;;
57319;SDS011;43158;51.026;18.190;2022-12-19T02:40:16;43.40;;;23.80;;
57319;SDS011;43158;51.026;18.190;2022-12-19T02:42:47;44.20;;;21.90;;
57319;SDS011;43158;51.026;18.190;2022-12-19T02:45:17;39.50;;;22.40;;
57319;SDS011;43158;51.026;18.190;2022-12-19T02:47:46;43.10;;;24.30;;
57319;SDS011;43158;51.026;18.190;2022-12-19T02:50:13;36.40;;;21.60;;
57319;SDS011;43158;51.026;18.190;2022-12-19T02:55:14;36.90;;;19.20;;
57319;SDS011;43158;51.026;18.190;2022-12-19T02:57:52;41.70;;;24.40;;
57319;SDS011;43158;51.026;18.190;2022-12-19T03:00:55;38.60;;;21.20;;
57319;SDS011;43158;51.026;18.190;2022-12-19T03:08:59;30.00;;;18.00;;
57319;SDS011;43158;51.026;18.190;2022-12-19T03:11:29;46.70;;;25.60;;
57319;SDS011;43158;51.026;18.190;2022-12-19T03:13:59;37.50;;;19.50;;
57319;SDS011;43158;51.026;18.190;2022-12-19T03:16:28;47.10;;;25.30;;
57319;SDS011;43158;51.026;18.190;2022-12-19T03:18:54;44.10;;;22.60;;
57319;SDS011;43158;51.026;18.190;2022-12-19T03:21:34;45.60;;;26.50;;
57319;SDS011;43158;51.026;18.190;2022-12-19T03:24:11;30.20;;;21.60;;
57319;SDS011;43158;51.026;18.190;2022-12-19T03:26:42;43.20;;;25.10;;
57319;SDS011;43158;51.026;18.190;2022-12-19T03:29:18;39.60;;;24.40;;
57319;SDS011;43158;51.026;18.190;2022-12-19T03:31:49;34.20;;;21.40;;
57319;SDS011;43158;51.026;18.190;2022-12-19T03:36:51;39.20;;;23.20;;
57319;SDS011;43158;51.026;18.190;2022-12-19T03:39:25;38.70;;;24.40;;
57319;SDS011;43158;51.026;18.190;2022-12-19T03:41:52;41.40;;;23.80;;
57319;SDS011;43158;51.026;18.190;2022-12-19T03:44:38;40.50;;;23.60;;
57319;SDS011;43158;51.026;18.190;2022-12-19T03:47:15;32.90;;;19.30;;
57319;SDS011;43158;51.026;18.190;2022-12-19T03:49:49;37.10;;;22.80;;
57319;SDS011;43158;51.026;18.190;2022-12-19T03:54:51;39.40;;;24.60;;
57319;SDS011;43158;51.026;18.190;2022-12-19T03:57:39;43.80;;;26.90;;
57319;SDS011;43158;51.026;18.190;2022-12-19T04:00:11;28.00;;;16.40;;
57319;SDS011;43158;51.026;18.190;2022-12-19T04:02:40;25.30;;;18.80;;
57319;SDS011;43158;51.026;18.190;2022-12-19T04:05:10;40.90;;;24.00;;
57319;SDS011;43158;51.026;18.190;2022-12-19T04:07:38;32.10;;;18.20;;
57319;SDS011;43158;51.026;18.190;2022-12-19T04:10:06;28.20;;;17.60;;
57319;SDS011;43158;51.026;18.190;2022-12-19T04:12:37;36.60;;;17.30;;
57319;SDS011;43158;51.026;18.190;2022-12-19T04:15:08;42.20;;;24.00;;
57319;SDS011;43158;51.026;18.190;2022-12-19T04:17:39;29.70;;;18.40;;
57319;SDS011;43158;51.026;18.190;2022-12-19T04:20:13;26.20;;;16.60;;
57319;SDS011;43158;51.026;18.190;2022-12-19T04:22:51;36.80;;;20.40;;
57319;SDS011;43158;51.026;18.190;2022-12-19T04:25:23;37.00;;;22.00;;
57319;SDS011;43158;51.026;18.190;2022-12-19T04:27:54;38.00;;;23.00;;
57319;SDS011;43158;51.026;18.190;2022-12-19T04:30:23;41.20;;;24.40;;
57319;SDS011;43158;51.026;18.190;2022-12-19T04:32:50;39.80;;;22.10;;
57319;SDS011;43158;51.026;18.190;2022-12-19T04:35:16;39.50;;;19.20;;
57319;SDS011;43158;51.026;18.190;2022-12-19T04:37:43;34.10;;;20.80;;
57319;SDS011;43158;51.026;18.190;2022-12-19T04:40:09;37.60;;;22.40;;
57319;SDS011;43158;51.026;18.190;2022-12-19T04:42:36;26.40;;;17.50;;
57319;SDS011;43158;51.026;18.190;2022-12-19T04:45:03;31.20;;;20.60;;
57319;SDS011;43158;51.026;18.190;2022-12-19T04:47:30;38.70;;;22.60;;
57319;SDS011;43158;51.026;18.190;2022-12-19T04:49:55;27.60;;;17.00;;
57319;SDS011;43158;51.026;18.190;2022-12-19T04:52:22;40.60;;;26.10;;
57319;SDS011;43158;51.026;18.190;2022-12-19T04:54:47;35.90;;;26.50;;
57319;SDS011;43158;51.026;18.190;2022-12-19T04:57:13;39.70;;;26.40;;
57319;SDS011;43158;51.026;18.190;2022-12-19T04:59:40;38.60;;;26.00;;
57319;SDS011;43158;51.026;18.190;2022-12-19T05:02:06;41.30;;;27.40;;
57319;SDS011;43158;51.026;18.190;2022-12-19T05:04:33;37.10;;;21.70;;
57319;SDS011;43158;51.026;18.190;2022-12-19T05:06:59;48.20;;;30.80;;
57319;SDS011;43158;51.026;18.190;2022-12-19T05:09:25;51.90;;;30.90;;
57319;SDS011;43158;51.026;18.190;2022-12-19T05:11:50;42.40;;;26.40;;
57319;SDS011;43158;51.026;18.190;2022-12-19T05:14:16;41.60;;;23.00;;
57319;SDS011;43158;51.026;18.190;2022-12-19T05:16:42;41.80;;;27.30;;
57319;SDS011;43158;51.026;18.190;2022-12-19T05:19:08;41.50;;;30.20;;
57319;SDS011;43158;51.026;18.190;2022-12-19T05:21:35;34.50;;;22.30;;
57319;SDS011;43158;51.026;18.190;2022-12-19T05:24:01;40.40;;;26.70;;
57319;SDS011;43158;51.026;18.190;2022-12-19T05:26:27;42.40;;;30.90;;
57319;SDS011;43158;51.026;18.190;2022-12-19T05:28:53;38.10;;;24.60;;
57319;SDS011;43158;51.026;18.190;2022-12-19T05:31:19;50.50;;;32.30;;
57319;SDS011;43158;51.026;18.190;2022-12-19T05:33:46;39.50;;;28.30;;
57319;SDS011;43158;51.026;18.190;2022-12-19T05:36:13;50.80;;;33.40;;
57319;SDS011;43158;51.026;18.190;2022-12-19T05:38:40;43.90;;;29.90;;
57319;SDS011;43158;51.026;18.190;2022-12-19T05:41:07;30.80;;;18.40;;
57319;SDS011;43158;51.026;18.190;2022-12-19T05:43:34;43.20;;;29.20;;
57319;SDS011;43158;51.026;18.190;2022-12-19T05:46:00;41.20;;;23.00;;
57319;SDS011;43158;51.026;18.190;2022-12-19T05:48:28;37.90;;;28.50;;
57319;SDS011;43158;51.026;18.190;2022-12-19T05:50:55;38.50;;;25.10;;
57319;SDS011;43158;51.026;18.190;2022-12-19T05:53:21;38.20;;;24.20;;
57319;SDS011;43158;51.026;18.190;2022-12-19T05:55:50;31.90;;;20.00;;
57319;SDS011;43158;51.026;18.190;2022-12-19T05:58:16;40.00;;;26.80;;
57319;SDS011;43158;51.026;18.190;2022-12-19T06:00:43;37.30;;;25.50;;
57319;SDS011;43158;51.026;18.190;2022-12-19T06:03:10;40.30;;;26.50;;
57319;SDS011;43158;51.026;18.190;2022-12-19T06:05:36;35.10;;;17.50;;
57319;SDS011;43158;51.026;18.190;2022-12-19T06:08:03;32.40;;;24.00;;
57319;SDS011;43158;51.026;18.190;2022-12-19T06:10:30;31.40;;;20.80;;
57319;SDS011;43158;51.026;18.190;2022-12-19T06:12:57;32.90;;;23.50;;
57319;SDS011;43158;51.026;18.190;2022-12-19T06:15:24;33.80;;;18.20;;
57319;SDS011;43158;51.026;18.190;2022-12-19T06:17:54;31.00;;;17.90;;
57319;SDS011;43158;51.026;18.190;2022-12-19T06:22:46;30.60;;;18.40;;
57319;SDS011;43158;51.026;18.190;2022-12-19T06:25:13;25.40;;;17.90;;
57319;SDS011;43158;51.026;18.190;2022-12-19T06:27:39;29.70;;;18.50;;
57319;SDS011;43158;51.026;18.190;2022-12-19T06:30:05;21.60;;;14.20;;
57319;SDS011;43158;51.026;18.190;2022-12-19T06:32:32;32.30;;;20.20;;
57319;SDS011;43158;51.026;18.190;2022-12-19T06:34:58;28.30;;;17.40;;
57319;SDS011;43158;51.026;18.190;2022-12-19T06:37:25;25.50;;;16.20;;
57319;SDS011;43158;51.026;18.190;2022-12-19T06:39:50;21.60;;;14.30;;
57319;SDS011;43158;51.026;18.190;2022-12-19T06:42:16;32.70;;;20.60;;
57319;SDS011;43158;51.026;18.190;2022-12-19T06:44:51;31.40;;;19.20;;
57319;SDS011;43158;51.026;18.190;2022-12-19T06:47:18;31.10;;;17.40;;
57319;SDS011;43158;51.026;18.190;2022-12-19T06:49:49;28.90;;;19.30;;
57319;SDS011;43158;51.026;18.190;2022-12-19T06:52:15;29.00;;;17.70;;
57319;SDS011;43158;51.026;18.190;2022-12-19T06:54:42;32.70;;;23.80;;
57319;SDS011;43158;51.026;18.190;2022-12-19T06:57:09;33.80;;;22.30;;
57319;SDS011;43158;51.026;18.190;2022-12-19T06:59:36;43.60;;;27.00;;
57319;SDS011;43158;51.026;18.190;2022-12-19T07:04:50;33.50;;;22.90;;
57319;SDS011;43158;51.026;18.190;2022-12-19T07:07:20;39.60;;;25.50;;
57319;SDS011;43158;51.026;18.190;2022-12-19T07:09:47;33.50;;;26.50;;
57319;SDS011;43158;51.026;18.190;2022-12-19T07:12:13;28.80;;;22.90;;
57319;SDS011;43158;51.026;18.190;2022-12-19T07:14:40;30.90;;;19.40;;
57319;SDS011;43158;51.026;18.190;2022-12-19T07:17:07;28.30;;;19.50;;
57319;SDS011;43158;51.026;18.190;2022-12-19T07:19:34;35.30;;;23.70;;
57319;SDS011;43158;51.026;18.190;2022-12-19T07:22:01;34.90;;;22.20;;
57319;SDS011;43158;51.026;18.190;2022-12-19T07:24:29;26.80;;;18.80;;
57319;SDS011;43158;51.026;18.190;2022-12-19T07:26:56;27.50;;;21.20;;
57319;SDS011;43158;51.026;18.190;2022-12-19T07:29:23;31.40;;;24.50;;
57319;SDS011;43158;51.026;18.190;2022-12-19T07:31:50;27.90;;;21.00;;
57319;SDS011;43158;51.026;18.190;2022-12-19T07:34:16;29.90;;;22.10;;
57319;SDS011;43158;51.026;18.190;2022-12-19T07:36:43;32.50;;;22.10;;
57319;SDS011;43158;51.026;18.190;2022-12-19T07:39:10;32.00;;;24.40;;
57319;SDS011;43158;51.026;18.190;2022-12-19T07:41:36;33.90;;;26.10;;
57319;SDS011;43158;51.026;18.190;2022-12-19T07:44:08;26.40;;;18.40;;
57319;SDS011;43158;51.026;18.190;2022-12-19T07:46:37;29.30;;;23.30;;
57319;SDS011;43158;51.026;18.190;2022-12-19T07:49:03;28.90;;;22.30;;
57319;SDS011;43158;51.026;18.190;2022-12-19T07:51:30;31.00;;;23.60;;
57319;SDS011;43158;51.026;18.190;2022-12-19T07:53:57;32.90;;;22.80;;
57319;SDS011;43158;51.026;18.190;2022-12-19T07:56:31;31.50;;;21.50;;
57319;SDS011;43158;51.026;18.190;2022-12-19T07:58:58;35.70;;;24.60;;
57319;SDS011;43158;51.026;18.190;2022-12-19T08:01:25;31.50;;;24.30;;
57319;SDS011;43158;51.026;18.190;2022-12-19T08:03:52;29.70;;;21.50;;
57319;SDS011;43158;51.026;18.190;2022-12-19T08:06:21;33.80;;;24.10;;
57319;SDS011;43158;51.026;18.190;2022-12-19T08:08:49;32.80;;;21.80;;
57319;SDS011;43158;51.026;18.190;2022-12-19T08:11:17;29.60;;;20.40;;
57319;SDS011;43158;51.026;18.190;2022-12-19T08:13:52;31.20;;;22.20;;
57319;SDS011;43158;51.026;18.190;2022-12-19T08:16:20;37.10;;;26.60;;
57319;SDS011;43158;51.026;18.190;2022-12-19T08:18:49;30.80;;;22.60;;
57319;SDS011;43158;51.026;18.190;2022-12-19T08:21:16;29.80;;;19.80;;
57319;SDS011;43158;51.026;18.190;2022-12-19T08:23:45;31.80;;;21.40;;
57319;SDS011;43158;51.026;18.190;2022-12-19T08:26:14;38.60;;;27.60;;
57319;SDS011;43158;51.026;18.190;2022-12-19T08:28:54;31.50;;;22.20;;
57319;SDS011;43158;51.026;18.190;2022-12-19T08:31:23;32.10;;;24.20;;
57319;SDS011;43158;51.026;18.190;2022-12-19T08:33:51;33.90;;;24.10;;
57319;SDS011;43158;51.026;18.190;2022-12-19T08:36:20;32.40;;;21.90;;
57319;SDS011;43158;51.026;18.190;2022-12-19T08:38:48;33.40;;;21.80;;
57319;SDS011;43158;51.026;18.190;2022-12-19T08:41:19;32.90;;;25.90;;
57319;SDS011;43158;51.026;18.190;2022-12-19T08:43:48;32.50;;;21.90;;
57319;SDS011;43158;51.026;18.190;2022-12-19T08:46:20;30.10;;;22.40;;
57319;SDS011;43158;51.026;18.190;2022-12-19T08:48:49;28.30;;;21.20;;
57319;SDS011;43158;51.026;18.190;2022-12-19T08:51:16;28.60;;;22.80;;
57319;SDS011;43158;51.026;18.190;2022-12-19T08:53:47;31.50;;;20.40;;
57319;SDS011;43158;51.026;18.190;2022-12-19T08:56:20;29.50;;;25.40;;
57319;SDS011;43158;51.026;18.190;2022-12-19T08:58:49;25.20;;;20.30;;
57319;SDS011;43158;51.026;18.190;2022-12-19T09:01:24;30.00;;;20.20;;
57319;SDS011;43158;51.026;18.190;2022-12-19T09:03:53;32.70;;;21.60;;
57319;SDS011;43158;51.026;18.190;2022-12-19T09:06:22;32.00;;;22.60;;
57319;SDS011;43158;51.026;18.190;2022-12-19T09:08:50;29.90;;;22.60;;
57319;SDS011;43158;51.026;18.190;2022-12-19T09:11:23;26.70;;;20.60;;
57319;SDS011;43158;51.026;18.190;2022-12-19T09:13:51;28.90;;;21.50;;
57319;SDS011;43158;51.026;18.190;2022-12-19T09:16:20;25.40;;;19.30;;
57319;SDS011;43158;51.026;18.190;2022-12-19T09:18:50;34.10;;;26.90;;
57319;SDS011;43158;51.026;18.190;2022-12-19T09:21:21;27.10;;;19.30;;
57319;SDS011;43158;51.026;18.190;2022-12-19T09:23:54;24.90;;;19.30;;
57319;SDS011;43158;51.026;18.190;2022-12-19T09:28:49;27.70;;;17.10;;
57319;SDS011;43158;51.026;18.190;2022-12-19T09:31:16;23.90;;;19.40;;
57319;SDS011;43158;51.026;18.190;2022-12-19T09:33:44;24.70;;;18.60;;
57319;SDS011;43158;51.026;18.190;2022-12-19T09:36:15;26.50;;;18.40;;
57319;SDS011;43158;51.026;18.190;2022-12-19T09:38:45;31.60;;;24.40;;
57319;SDS011;43158;51.026;18.190;2022-12-19T09:41:47;29.00;;;22.60;;
57319;SDS011;43158;51.026;18.190;2022-12-19T09:47:02;29.80;;;23.70;;
57319;SDS011;43158;51.026;18.190;2022-12-19T09:49:39;27.90;;;22.80;;
57319;SDS011;43158;51.026;18.190;2022-12-19T09:52:16;31.60;;;28.20;;
57319;SDS011;43158;51.026;18.190;2022-12-19T09:57:33;25.00;;;18.00;;
57319;SDS011;43158;51.026;18.190;2022-12-19T10:00:13;27.70;;;18.80;;
57319;SDS011;43158;51.026;18.190;2022-12-19T10:02:57;33.30;;;25.00;;
57319;SDS011;43158;51.026;18.190;2022-12-19T10:08:15;31.10;;;21.30;;
57319;SDS011;43158;51.026;18.190;2022-12-19T10:10:57;27.10;;;19.00;;
57319;SDS011;43158;51.026;18.190;2022-12-19T10:13:59;28.60;;;22.30;;
57319;SDS011;43158;51.026;18.190;2022-12-19T10:16:52;32.80;;;25.20;;
57319;SDS011;43158;51.026;18.190;2022-12-19T10:25:05;24.80;;;19.40;;
57319;SDS011;43158;51.026;18.190;2022-12-19T10:28:11;28.10;;;20.10;;
57319;SDS011;43158;51.026;18.190;2022-12-19T10:34:01;28.30;;;21.10;;
57319;SDS011;43158;51.026;18.190;2022-12-19T10:36:46;28.10;;;20.50;;
57319;SDS011;43158;51.026;18.190;2022-12-19T10:39:33;26.70;;;19.70;;
57319;SDS011;43158;51.026;18.190;2022-12-19T10:42:18;28.70;;;23.80;;
57319;SDS011;43158;51.026;18.190;2022-12-19T10:44:48;25.60;;;18.10;;
57319;SDS011;43158;51.026;18.190;2022-12-19T10:47:19;26.80;;;18.30;;
57319;SDS011;43158;51.026;18.190;2022-12-19T10:49:46;25.00;;;16.00;;
57319;SDS011;43158;51.026;18.190;2022-12-19T10:52:13;23.30;;;18.80;;
57319;SDS011;43158;51.026;18.190;2022-12-19T10:54:41;24.60;;;19.00;;
57319;SDS011;43158;51.026;18.190;2022-12-19T10:57:17;23.20;;;17.80;;
57319;SDS011;43158;51.026;18.190;2022-12-19T10:59:54;22.80;;;17.90;;
57319;SDS011;43158;51.026;18.190;2022-12-19T11:08:01;28.80;;;22.40;;
57319;SDS011;43158;51.026;18.190;2022-12-19T11:10:39;26.40;;;19.30;;
57319;SDS011;43158;51.026;18.190;2022-12-19T11:15:59;24.80;;;19.90;;
57319;SDS011;43158;51.026;18.190;2022-12-19T11:18:40;22.30;;;17.90;;
57319;SDS011;43158;51.026;18.190;2022-12-19T11:26:31;29.20;;;22.70;;
57319;SDS011;43158;51.026;18.190;2022-12-19T11:29:16;26.00;;;20.70;;
57319;SDS011;43158;51.026;18.190;2022-12-19T11:31:58;28.60;;;20.90;;
57319;SDS011;43158;51.026;18.190;2022-12-19T11:34:27;26.50;;;22.50;;
57319;SDS011;43158;51.026;18.190;2022-12-19T11:44:59;29.10;;;22.60;;
57319;SDS011;43158;51.026;18.190;2022-12-19T11:47:53;33.40;;;25.60;;
57319;SDS011;43158;51.026;18.190;2022-12-19T11:50:31;32.60;;;22.90;;
57319;SDS011;43158;51.026;18.190;2022-12-19T11:53:11;29.90;;;22.50;;
57319;SDS011;43158;51.026;18.190;2022-12-19T11:55:49;24.80;;;20.80;;
57319;SDS011;43158;51.026;18.190;2022-12-19T11:58:41;30.30;;;22.20;;
57319;SDS011;43158;51.026;18.190;2022-12-19T12:04:15;32.00;;;25.50;;
57319;SDS011;43158;51.026;18.190;2022-12-19T12:07:00;30.90;;;23.60;;
57319;SDS011;43158;51.026;18.190;2022-12-19T12:15:11;32.90;;;21.90;;
57319;SDS011;43158;51.026;18.190;2022-12-19T12:20:51;27.70;;;20.90;;
57319;SDS011;43158;51.026;18.190;2022-12-19T12:23:24;27.80;;;21.50;;
57319;SDS011;43158;51.026;18.190;2022-12-19T12:26:14;27.20;;;20.70;;
57319;SDS011;43158;51.026;18.190;2022-12-19T12:31:36;28.10;;;22.00;;
57319;SDS011;43158;51.026;18.190;2022-12-19T12:37:03;30.90;;;22.00;;
57319;SDS011;43158;51.026;18.190;2022-12-19T12:42:28;23.10;;;18.20;;
57319;SDS011;43158;51.026;18.190;2022-12-19T12:45:03;26.00;;;21.20;;
57319;SDS011;43158;51.026;18.190;2022-12-19T12:47:54;31.20;;;26.00;;
57319;SDS011;43158;51.026;18.190;2022-12-19T12:50:31;25.60;;;20.10;;
57319;SDS011;43158;51.026;18.190;2022-12-19T12:53:05;26.60;;;22.60;;
57319;SDS011;43158;51.026;18.190;2022-12-19T12:55:38;38.70;;;28.30;;
57319;SDS011;43158;51.026;18.190;2022-12-19T13:04:04;26.70;;;20.80;;
57319;SDS011;43158;51.026;18.190;2022-12-19T13:06:38;26.80;;;21.40;;
57319;SDS011;43158;51.026;18.190;2022-12-19T13:11:44;33.80;;;24.30;;
57319;SDS011;43158;51.026;18.190;2022-12-19T13:17:58;25.20;;;19.80;;
57319;SDS011;43158;51.026;18.190;2022-12-19T13:42:22;29.20;;;22.30;;
57319;SDS011;43158;51.026;18.190;2022-12-19T13:47:43;32.40;;;22.70;;
57319;SDS011;43158;51.026;18.190;2022-12-19T13:50:31;35.60;;;25.50;;
57319;SDS011;43158;51.026;18.190;2022-12-19T13:53:15;28.80;;;23.70;;
57319;SDS011;43158;51.026;18.190;2022-12-19T13:55:46;32.90;;;26.30;;
57319;SDS011;43158;51.026;18.190;2022-12-19T13:58:22;31.70;;;22.90;;
57319;SDS011;43158;51.026;18.190;2022-12-19T14:00:52;35.70;;;28.10;;
57319;SDS011;43158;51.026;18.190;2022-12-19T14:03:30;32.20;;;20.60;;
57319;SDS011;43158;51.026;18.190;2022-12-19T14:09:02;36.10;;;25.90;;
57319;SDS011;43158;51.026;18.190;2022-12-19T14:11:31;38.20;;;30.40;;
57319;SDS011;43158;51.026;18.190;2022-12-19T14:14:07;31.90;;;22.00;;
57319;SDS011;43158;51.026;18.190;2022-12-19T14:17:07;28.80;;;20.40;;
57319;SDS011;43158;51.026;18.190;2022-12-19T14:19:45;35.60;;;24.60;;
57319;SDS011;43158;51.026;18.190;2022-12-19T14:24:56;24.70;;;21.60;;
57319;SDS011;43158;51.026;18.190;2022-12-19T14:30:19;27.10;;;20.10;;
57319;SDS011;43158;51.026;18.190;2022-12-19T14:32:48;32.60;;;23.50;;
57319;SDS011;43158;51.026;18.190;2022-12-19T14:35:17;35.60;;;26.60;;
57319;SDS011;43158;51.026;18.190;2022-12-19T14:37:56;35.60;;;30.20;;
57319;SDS011;43158;51.026;18.190;2022-12-19T14:40:28;29.90;;;23.70;;
57319;SDS011;43158;51.026;18.190;2022-12-19T14:43:03;36.40;;;27.30;;
57319;SDS011;43158;51.026;18.190;2022-12-19T14:51:38;34.80;;;25.70;;
57319;SDS011;43158;51.026;18.190;2022-12-19T14:59:17;32.00;;;24.00;;
57319;SDS011;43158;51.026;18.190;2022-12-19T15:01:54;34.50;;;25.90;;
57319;SDS011;43158;51.026;18.190;2022-12-19T15:04:29;36.70;;;24.60;;
57319;SDS011;43158;51.026;18.190;2022-12-19T15:07:02;32.80;;;26.50;;
57319;SDS011;43158;51.026;18.190;2022-12-19T15:09:36;32.90;;;24.40;;
57319;SDS011;43158;51.026;18.190;2022-12-19T15:12:26;28.90;;;20.00;;
57319;SDS011;43158;51.026;18.190;2022-12-19T15:15:23;31.60;;;23.20;;
57319;SDS011;43158;51.026;18.190;2022-12-19T15:18:02;27.50;;;19.60;;
57319;SDS011;43158;51.026;18.190;2022-12-19T15:20:38;26.30;;;20.00;;
57319;SDS011;43158;51.026;18.190;2022-12-19T15:23:05;31.80;;;21.20;;
57319;SDS011;43158;51.026;18.190;2022-12-19T15:25:32;33.30;;;20.10;;
57319;SDS011;43158;51.026;18.190;2022-12-19T15:27:59;44.50;;;29.50;;
57319;SDS011;43158;51.026;18.190;2022-12-19T15:30:26;34.50;;;26.70;;
57319;SDS011;43158;51.026;18.190;2022-12-19T15:32:57;41.90;;;26.40;;
57319;SDS011;43158;51.026;18.190;2022-12-19T15:35:24;33.00;;;21.70;;
57319;SDS011;43158;51.026;18.190;2022-12-19T15:37:51;35.40;;;27.20;;
57319;SDS011;43158;51.026;18.190;2022-12-19T15:40:17;38.30;;;28.40;;
57319;SDS011;43158;51.026;18.190;2022-12-19T15:42:43;33.90;;;24.80;;
57319;SDS011;43158;51.026;18.190;2022-12-19T15:45:15;30.70;;;22.60;;
57319;SDS011;43158;51.026;18.190;2022-12-19T15:47:43;41.40;;;29.70;;
57319;SDS011;43158;51.026;18.190;2022-12-19T15:50:28;38.80;;;25.50;;
57319;SDS011;43158;51.026;18.190;2022-12-19T15:52:57;39.60;;;31.80;;
57319;SDS011;43158;51.026;18.190;2022-12-19T15:55:25;29.20;;;22.50;;
57319;SDS011;43158;51.026;18.190;2022-12-19T15:57:59;35.10;;;25.10;;
57319;SDS011;43158;51.026;18.190;2022-12-19T16:00:26;28.80;;;23.90;;
57319;SDS011;43158;51.026;18.190;2022-12-19T16:02:56;33.20;;;28.30;;
57319;SDS011;43158;51.026;18.190;2022-12-19T16:05:23;37.50;;;29.10;;
57319;SDS011;43158;51.026;18.190;2022-12-19T16:07:51;35.80;;;27.80;;
57319;SDS011;43158;51.026;18.190;2022-12-19T16:10:17;34.30;;;24.60;;
57319;SDS011;43158;51.026;18.190;2022-12-19T16:12:44;36.50;;;26.40;;
57319;SDS011;43158;51.026;18.190;2022-12-19T16:15:23;41.60;;;26.90;;
57319;SDS011;43158;51.026;18.190;2022-12-19T16:17:50;34.20;;;24.80;;
57319;SDS011;43158;51.026;18.190;2022-12-19T16:20:19;41.10;;;34.30;;
57319;SDS011;43158;51.026;18.190;2022-12-19T16:22:51;32.80;;;24.60;;
57319;SDS011;43158;51.026;18.190;2022-12-19T16:25:20;38.30;;;28.60;;
57319;SDS011;43158;51.026;18.190;2022-12-19T16:27:49;41.10;;;27.20;;
57319;SDS011;43158;51.026;18.190;2022-12-19T16:30:21;45.00;;;35.00;;
57319;SDS011;43158;51.026;18.190;2022-12-19T16:32:49;34.00;;;26.70;;
57319;SDS011;43158;51.026;18.190;2022-12-19T16:35:18;40.40;;;31.20;;
57319;SDS011;43158;51.026;18.190;2022-12-19T16:37:47;32.00;;;25.10;;
57319;SDS011;43158;51.026;18.190;2022-12-19T16:40:17;41.40;;;26.60;;
57319;SDS011;43158;51.026;18.190;2022-12-19T16:42:48;35.10;;;24.50;;
57319;SDS011;43158;51.026;18.190;2022-12-19T16:45:16;35.40;;;26.90;;
57319;SDS011;43158;51.026;18.190;2022-12-19T16:47:46;33.90;;;24.80;;
57319;SDS011;43158;51.026;18.190;2022-12-19T16:52:45;32.10;;;25.30;;
57319;SDS011;43158;51.026;18.190;2022-12-19T16:55:12;30.10;;;24.00;;
57319;SDS011;43158;51.026;18.190;2022-12-19T16:57:39;29.70;;;25.00;;
57319;SDS011;43158;51.026;18.190;2022-12-19T17:00:06;32.60;;;23.70;;
57319;SDS011;43158;51.026;18.190;2022-12-19T17:05:21;37.50;;;25.60;;
57319;SDS011;43158;51.026;18.190;2022-12-19T17:07:51;38.60;;;27.60;;
57319;SDS011;43158;51.026;18.190;2022-12-19T17:10:19;42.40;;;27.30;;
57319;SDS011;43158;51.026;18.190;2022-12-19T17:12:46;31.90;;;21.80;;
57319;SDS011;43158;51.026;18.190;2022-12-19T17:15:20;30.90;;;23.70;;
57319;SDS011;43158;51.026;18.190;2022-12-19T17:17:49;33.00;;;25.10;;